Time;durP1;ratioP1;P1;durP2;ratioP2;P2;SDS_P1;SDS_P2;PMS_P1;PMS_P2;Temp;Humidity;BMP_temperature;BMP_pressure;BME280_temperature;BME280_humidity;BME280_pressure;Samples;Min_cycle;Max_cycle;Signal;HPM_P1;HPM_P2
2022/11/07 00:00:32;;;;;;;5.80;3.70;;;10.40;99.90;;;;;;5006500;28;20071;-71
2022/11/07 00:02:58;;;;;;;6.57;3.70;;;10.50;99.90;;;;;;4995924;28;20069;-70
2022/11/07 00:05:23;;;;;;;10.67;3.97;;;10.50;99.90;;;;;;4993431;28;20077;-70
2022/11/07 00:07:49;;;;;;;6.27;3.77;;;10.50;99.90;;;;;;5007715;28;20402;-71
2022/11/07 00:10:15;;;;;;;8.57;3.90;;;10.50;99.90;;;;;;5003957;28;20408;-71
2022/11/07 00:12:40;;;;;;;9.15;3.83;;;10.50;99.90;;;;;;5009923;28;20040;-72
2022/11/07 00:15:07;;;;;;;7.47;3.43;;;10.50;99.90;;;;;;5001600;28;20072;-71
2022/11/07 00:17:32;;;;;;;8.52;3.38;;;10.50;99.90;;;;;;4996278;28;20073;-71
2022/11/07 00:19:58;;;;;;;11.47;3.60;;;10.50;99.90;;;;;;5001988;28;20147;-71
2022/11/07 00:22:24;;;;;;;6.67;3.80;;;10.50;99.90;;;;;;5004069;28;20037;-71
2022/11/07 00:24:49;;;;;;;7.00;3.73;;;10.60;99.90;;;;;;4970613;28;20560;-71
2022/11/07 00:27:15;;;;;;;7.93;3.07;;;10.60;99.90;;;;;;4998545;28;20588;-70
2022/11/07 00:29:40;;;;;;;9.73;3.80;;;10.60;99.90;;;;;;4999469;28;20526;-71
2022/11/07 00:32:06;;;;;;;9.37;3.83;;;10.60;99.90;;;;;;4999551;28;20048;-71
2022/11/07 00:34:34;;;;;;;7.80;3.43;;;10.60;99.90;;;;;;5005167;28;20037;-71
2022/11/07 00:37:01;;;;;;;6.10;3.30;;;10.60;99.90;;;;;;4984842;28;20034;-72
2022/11/07 00:39:27;;;;;;;4.15;3.10;;;10.70;99.90;;;;;;5000234;28;20082;-71
2022/11/07 00:41:52;;;;;;;13.98;3.80;;;10.70;99.90;;;;;;4999049;28;20395;-71
2022/11/07 00:44:18;;;;;;;14.27;3.63;;;10.60;99.90;;;;;;4995970;28;20645;-72
2022/11/07 00:46:44;;;;;;;10.70;3.80;;;10.70;99.90;;;;;;4992229;28;20125;-73
2022/11/07 00:49:09;;;;;;;8.07;2.97;;;10.70;99.90;;;;;;4986410;28;20591;-71
2022/11/07 00:51:35;;;;;;;7.57;3.17;;;10.70;99.90;;;;;;4998292;28;20038;-71
2022/11/07 00:54:03;;;;;;;6.88;3.38;;;10.60;99.90;;;;;;5002260;28;20491;-72
2022/11/07 00:56:28;;;;;;;7.25;3.58;;;10.70;99.90;;;;;;5000453;28;20038;-72
2022/11/07 00:58:55;;;;;;;6.23;3.10;;;10.70;99.90;;;;;;5004100;28;20364;-71
2022/11/07 01:01:25;;;;;;;6.53;2.97;;;10.70;99.90;;;;;;4995757;28;20324;-71
2022/11/07 01:06:38;;;;;;;11.57;3.50;;;10.70;99.90;;;;;;4996057;28;20052;-72
2022/11/07 01:09:06;;;;;;;6.10;2.85;;;10.70;99.90;;;;;;5006376;28;20518;-72
2022/11/07 01:11:31;;;;;;;9.45;2.92;;;10.70;99.90;;;;;;4993664;28;20447;-71
2022/11/07 01:14:00;;;;;;;10.40;3.20;;;10.70;99.90;;;;;;5003231;28;20034;-71
2022/11/07 01:16:27;;;;;;;9.00;3.10;;;10.80;99.90;;;;;;4997717;28;20499;-71
2022/11/07 01:18:53;;;;;;;5.57;2.72;;;10.80;99.90;;;;;;5002305;28;20061;-71
2022/11/07 01:21:19;;;;;;;6.53;2.50;;;10.80;99.90;;;;;;5004400;28;20452;-72
2022/11/07 01:23:45;;;;;;;6.60;2.47;;;10.80;99.90;;;;;;4998460;28;20042;-72
2022/11/07 01:26:13;;;;;;;5.55;2.53;;;10.80;99.90;;;;;;4989871;28;20069;-72
2022/11/07 01:28:39;;;;;;;17.67;3.30;;;10.80;99.90;;;;;;4989966;28;20122;-72
2022/11/07 01:31:08;;;;;;;8.07;2.60;;;10.80;99.90;;;;;;5000515;28;20053;-72
2022/11/07 01:33:33;;;;;;;10.13;3.30;;;10.80;99.90;;;;;;4997758;28;20424;-72
2022/11/07 01:36:05;;;;;;;8.13;3.45;;;10.80;99.90;;;;;;4996415;28;20084;-72
2022/11/07 01:38:31;;;;;;;5.47;2.83;;;10.80;99.90;;;;;;5003702;28;20057;-72
2022/11/07 01:44:18;;;;;;;6.13;3.00;;;10.80;99.90;;;;;;5005907;28;20046;-72
2022/11/07 01:46:46;;;;;;;7.55;3.45;;;10.80;99.90;;;;;;4996971;28;20089;-72
2022/11/07 01:49:23;;;;;;;9.32;3.08;;;10.80;99.90;;;;;;5000667;28;20132;-72
2022/11/07 01:52:27;;;;;;;7.47;2.60;;;10.80;99.90;;;;;;4997975;28;20133;-72
2022/11/07 01:54:59;;;;;;;6.85;2.50;;;10.80;99.90;;;;;;4988220;28;21654;-71
2022/11/07 01:57:29;;;;;;;4.60;2.50;;;10.80;99.90;;;;;;4998159;28;20042;-72
2022/11/07 01:59:58;;;;;;;11.32;2.80;;;10.80;99.90;;;;;;5002054;28;20268;-72
2022/11/07 02:02:27;;;;;;;5.88;2.58;;;10.80;99.90;;;;;;5002593;28;20045;-71
2022/11/07 02:04:56;;;;;;;7.05;2.67;;;10.70;99.90;;;;;;5002737;28;20038;-72
2022/11/07 02:07:23;;;;;;;11.77;3.30;;;10.70;99.90;;;;;;5008607;28;20034;-72
2022/11/07 02:09:51;;;;;;;8.77;2.95;;;10.80;99.90;;;;;;5002343;28;20049;-72
2022/11/07 02:12:17;;;;;;;6.05;2.20;;;10.80;99.90;;;;;;5008662;28;20042;-71
2022/11/07 02:14:43;;;;;;;;;;;10.80;99.90;;;;;;4981513;28;20609;-71
2022/11/07 02:17:10;;;;;;;8.50;2.13;;;10.80;99.90;;;;;;5000022;28;19929;-71
2022/11/07 02:19:46;;;;;;;8.43;2.30;;;10.80;99.90;;;;;;4986410;28;20049;-72
2022/11/07 02:22:31;;;;;;;4.95;2.38;;;10.80;99.90;;;;;;4999113;28;20042;-71
2022/11/07 02:24:59;;;;;;;4.70;2.53;;;10.80;99.90;;;;;;5005492;28;20045;-71
2022/11/07 02:27:28;;;;;;;6.28;2.30;;;10.80;99.90;;;;;;5008108;28;20503;-72
2022/11/07 02:30:04;;;;;;;8.88;2.78;;;10.90;99.90;;;;;;4998483;28;20053;-72
2022/11/07 02:32:30;;;;;;;7.57;2.28;;;10.90;99.90;;;;;;5003961;28;20045;-71
2022/11/07 02:35:05;;;;;;;5.60;2.07;;;10.90;99.90;;;;;;4997787;28;20411;-71
2022/11/07 02:37:38;;;;;;;8.32;2.63;;;10.90;99.90;;;;;;5009230;28;20050;-72
2022/11/07 02:40:07;;;;;;;5.13;2.15;;;10.90;99.90;;;;;;4998346;28;20042;-70
2022/11/07 02:42:42;;;;;;;5.25;1.73;;;10.80;99.90;;;;;;5005633;28;20085;-72
2022/11/07 02:45:17;;;;;;;11.52;1.95;;;10.80;99.90;;;;;;4995495;28;20702;-71
2022/11/07 02:47:44;;;;;;;5.72;1.83;;;10.90;99.90;;;;;;4983771;28;20045;-72
2022/11/07 02:50:13;;;;;;;3.45;1.67;;;10.80;99.90;;;;;;5003058;28;20076;-71
2022/11/07 02:52:39;;;;;;;9.18;2.10;;;10.80;99.90;;;;;;5004288;28;20088;-71
2022/11/07 02:55:06;;;;;;;7.28;2.10;;;10.80;99.90;;;;;;5006895;28;20068;-71
2022/11/07 02:57:32;;;;;;;4.72;2.00;;;10.80;99.90;;;;;;4997518;28;20050;-72
2022/11/07 02:59:58;;;;;;;6.27;2.43;;;10.80;99.90;;;;;;5009933;28;20530;-72
2022/11/07 03:02:24;;;;;;;7.17;2.33;;;10.80;99.90;;;;;;4995649;28;20306;-72
2022/11/07 03:04:50;;;;;;;10.82;2.38;;;10.90;99.90;;;;;;5006978;28;20479;-71
2022/11/07 03:07:16;;;;;;;5.82;1.48;;;10.80;99.90;;;;;;5004226;28;20065;-72
2022/11/07 03:09:42;;;;;;;10.95;2.33;;;10.90;99.90;;;;;;5004494;28;20038;-73
2022/11/07 03:12:07;;;;;;;5.72;2.00;;;10.90;99.90;;;;;;5006513;28;20038;-71
2022/11/07 03:14:33;;;;;;;6.68;1.90;;;10.90;99.90;;;;;;5028747;22;20160;-73
2022/11/07 03:16:59;;;;;;;4.75;1.45;;;10.90;99.90;;;;;;5028138;28;20411;-72
2022/11/07 03:19:25;;;;;;;10.23;2.00;;;10.90;99.90;;;;;;5009376;28;20037;-72
2022/11/07 03:21:51;;;;;;;11.07;1.50;;;10.90;99.90;;;;;;5008783;28;20046;-72
2022/11/07 03:24:17;;;;;;;6.85;1.85;;;10.90;99.90;;;;;;5014392;28;20045;-72
2022/11/07 03:26:44;;;;;;;7.22;2.30;;;10.90;99.90;;;;;;5007193;28;20046;-76
2022/11/07 03:29:12;;;;;;;5.43;1.17;;;10.90;99.90;;;;;;5008608;28;20050;-75
2022/11/07 03:31:41;;;;;;;8.68;1.77;;;10.90;99.90;;;;;;5018855;28;20038;-73
2022/11/07 03:34:09;;;;;;;4.68;1.45;;;10.90;99.90;;;;;;5013375;28;20092;-74
2022/11/07 03:36:35;;;;;;;2.60;1.10;;;10.80;99.90;;;;;;5015403;28;20050;-73
2022/11/07 03:39:03;;;;;;;7.13;1.67;;;10.90;99.90;;;;;;5021636;28;20122;-73
2022/11/07 03:41:29;;;;;;;3.20;1.33;;;10.80;99.90;;;;;;5012219;28;20550;-72
2022/11/07 03:43:55;;;;;;;5.70;1.23;;;10.80;99.90;;;;;;5007496;28;20042;-73
2022/11/07 03:46:20;;;;;;;7.70;1.80;;;10.80;99.90;;;;;;5019539;28;20271;-73
2022/11/07 03:48:46;;;;;;;6.47;2.03;;;10.80;99.90;;;;;;5013958;28;20403;-74
2022/11/07 03:51:12;;;;;;;4.37;1.20;;;10.80;99.90;;;;;;5024602;28;20268;-73
2022/11/07 03:53:38;;;;;;;3.63;1.30;;;10.80;99.90;;;;;;5016081;28;20529;-73
2022/11/07 03:56:08;;;;;;;5.72;1.20;;;10.80;99.90;;;;;;5018635;28;20352;-73
2022/11/07 03:58:37;;;;;;;4.22;2.45;;;10.80;99.90;;;;;;5010144;28;20053;-81
2022/11/07 04:01:05;;;;;;;5.20;1.23;;;10.80;99.90;;;;;;5009400;28;20108;-72
2022/11/07 04:03:32;;;;;;;6.72;2.10;;;10.80;99.90;;;;;;5011228;28;20046;-73
2022/11/07 04:05:57;;;;;;;8.52;2.25;;;10.80;99.90;;;;;;5018638;28;20116;-77
2022/11/07 04:08:24;;;;;;;10.50;1.63;;;10.80;99.90;;;;;;4994670;28;20460;-78
2022/11/07 04:10:50;;;;;;;5.25;1.85;;;10.80;99.90;;;;;;5018562;28;20365;-73
2022/11/07 04:18:48;;;;;;;6.50;1.58;;;10.80;99.90;;;;;;5010364;28;20183;-72
2022/11/07 04:21:13;;;;;;;8.40;1.60;;;10.80;99.90;;;;;;5008455;28;20084;-73
2022/11/07 04:23:39;;;;;;;7.50;1.50;;;10.80;99.90;;;;;;5005687;28;20069;-72
2022/11/07 04:28:49;;;;;;;11.80;1.80;;;10.80;99.90;;;;;;5008977;28;20050;-72
2022/11/07 04:31:15;;;;;;;5.03;1.75;;;10.90;99.90;;;;;;5006151;28;20041;-71
2022/11/07 04:33:40;;;;;;;11.23;1.87;;;10.80;99.90;;;;;;4990004;28;20049;-72
2022/11/07 04:36:07;;;;;;;6.83;1.87;;;10.90;99.90;;;;;;5006114;28;20301;-72
2022/11/07 04:38:40;;;;;;;7.47;2.30;;;10.90;99.90;;;;;;5013069;28;20287;-72
2022/11/07 04:41:16;;;;;;;7.68;1.88;;;10.90;99.90;;;;;;5006357;28;20048;-72
2022/11/07 04:43:42;;;;;;;8.10;1.65;;;10.90;99.90;;;;;;5008961;28;20451;-72
2022/11/07 04:46:07;;;;;;;7.80;1.90;;;10.90;99.90;;;;;;5007641;28;20042;-72
2022/11/07 04:48:33;;;;;;;12.17;2.63;;;10.90;99.90;;;;;;4992690;28;20053;-72
2022/11/07 04:50:59;;;;;;;10.73;2.17;;;10.90;99.90;;;;;;5003936;28;20119;-74
2022/11/07 04:53:25;;;;;;;9.45;2.30;;;10.90;99.90;;;;;;5008654;28;20800;-74
2022/11/07 04:55:50;;;;;;;3.17;1.70;;;10.90;99.90;;;;;;5004336;28;20076;-74
2022/11/07 04:58:16;;;;;;;8.07;1.77;;;10.90;99.90;;;;;;5005819;28;20121;-74
2022/11/07 05:00:42;;;;;;;6.23;2.00;;;10.90;99.90;;;;;;5004411;28;20291;-74
2022/11/07 05:03:07;;;;;;;9.87;2.13;;;10.90;99.90;;;;;;5000043;28;20073;-74
2022/11/07 05:05:33;;;;;;;4.50;1.98;;;10.80;99.90;;;;;;4999532;28;20503;-74
2022/11/07 05:07:59;;;;;;;6.70;1.75;;;10.80;99.90;;;;;;5000557;28;20095;-74
2022/11/07 05:10:27;;;;;;;6.03;1.83;;;10.80;99.90;;;;;;5003398;28;20077;-74
2022/11/07 05:12:54;;;;;;;4.28;2.10;;;10.70;99.90;;;;;;5009033;28;20095;-74
2022/11/07 05:15:20;;;;;;;6.63;1.80;;;10.80;99.90;;;;;;4998923;28;20053;-74
2022/11/07 05:17:46;;;;;;;11.32;1.70;;;10.70;99.90;;;;;;4988628;28;20479;-74
2022/11/07 05:20:27;;;;;;;3.57;1.60;;;10.70;99.90;;;;;;5005502;28;20065;-75
2022/11/07 05:23:16;;;;;;;4.63;1.45;;;10.70;99.90;;;;;;4984886;28;20053;-75
2022/11/07 05:25:42;;;;;;;5.80;1.88;;;10.70;99.90;;;;;;5000705;28;20034;-75
2022/11/07 05:28:10;;;;;;;3.78;1.50;;;10.70;99.90;;;;;;4990190;28;20068;-75
2022/11/07 05:30:40;;;;;;;7.05;1.55;;;10.70;99.90;;;;;;5005647;28;20126;-74
2022/11/07 05:33:08;;;;;;;6.40;1.75;;;10.70;99.90;;;;;;5008841;28;20065;-74
2022/11/07 05:35:34;;;;;;;7.90;1.83;;;10.70;99.90;;;;;;5002998;28;20112;-75
2022/11/07 05:38:00;;;;;;;5.55;1.77;;;10.70;99.90;;;;;;5022950;28;20473;-75
2022/11/07 05:40:28;;;;;;;6.65;1.75;;;10.80;99.90;;;;;;5019002;28;20048;-75
2022/11/07 05:43:02;;;;;;;5.43;1.60;;;10.70;99.90;;;;;;5003266;28;20128;-75
2022/11/07 05:45:29;;;;;;;5.70;1.80;;;10.80;99.90;;;;;;5002792;28;20294;-75
2022/11/07 05:48:02;;;;;;;;;;;10.80;99.90;;;;;;5004123;28;20081;-75
2022/11/07 05:50:34;;;;;;;7.70;1.38;;;10.80;99.90;;;;;;5014875;28;20493;-74
2022/11/07 05:53:03;;;;;;;4.90;1.73;;;10.80;99.90;;;;;;4995631;28;20070;-76
2022/11/07 05:55:29;;;;;;;3.72;1.30;;;10.70;99.90;;;;;;5003308;28;20176;-74
2022/11/07 05:57:55;;;;;;;4.72;1.33;;;10.70;99.90;;;;;;5006486;28;20053;-74
2022/11/07 06:00:21;;;;;;;4.47;1.70;;;10.70;99.90;;;;;;5007690;28;20041;-75
2022/11/07 06:02:59;;;;;;;8.32;1.70;;;10.70;99.90;;;;;;5001432;28;20543;-75
2022/11/07 06:05:25;;;;;;;4.63;1.98;;;10.70;99.90;;;;;;5000426;28;20057;-74
2022/11/07 06:07:51;;;;;;;8.35;1.80;;;10.80;99.90;;;;;;5010403;28;20033;-74
2022/11/07 06:10:17;;;;;;;3.85;1.60;;;10.80;99.90;;;;;;4998729;28;20053;-75
2022/11/07 06:12:43;;;;;;;6.22;1.90;;;10.80;99.90;;;;;;5004822;28;20044;-74
2022/11/07 06:15:09;;;;;;;4.60;1.60;;;10.80;99.90;;;;;;5006343;28;20038;-76
2022/11/07 06:17:34;;;;;;;5.78;1.75;;;10.80;99.90;;;;;;5003848;28;21011;-74
2022/11/07 06:20:04;;;;;;;9.47;2.20;;;10.80;99.90;;;;;;5004766;28;20052;-75
2022/11/07 06:22:29;;;;;;;5.65;1.73;;;10.80;99.90;;;;;;5003893;28;20041;-74
2022/11/07 06:24:56;;;;;;;5.57;1.70;;;10.80;99.90;;;;;;5006890;28;20359;-75
2022/11/07 06:27:22;;;;;;;6.78;3.08;;;10.80;99.90;;;;;;5011445;28;20120;-74
2022/11/07 06:29:47;;;;;;;10.00;2.03;;;10.80;99.90;;;;;;5005988;28;20589;-74
2022/11/07 06:32:13;;;;;;;5.40;1.50;;;10.70;99.90;;;;;;5015266;28;20103;-74
2022/11/07 06:34:39;;;;;;;5.45;1.90;;;10.70;99.90;;;;;;5008873;28;20072;-74
2022/11/07 06:37:04;;;;;;;6.87;1.63;;;10.80;99.90;;;;;;5011081;28;20069;-75
2022/11/07 06:39:33;;;;;;;8.13;2.03;;;10.70;99.90;;;;;;5005289;28;20041;-74
2022/11/07 06:41:59;;;;;;;8.05;2.45;;;10.70;99.90;;;;;;5005676;28;20145;-74
2022/11/07 06:44:24;;;;;;;4.77;1.57;;;10.70;99.90;;;;;;4999351;28;20176;-74
2022/11/07 06:46:50;;;;;;;5.13;1.30;;;10.80;99.90;;;;;;5007156;28;20104;-78
2022/11/07 06:49:16;;;;;;;5.78;1.98;;;10.70;99.90;;;;;;5008421;28;20049;-75
2022/11/07 06:51:41;;;;;;;5.57;1.80;;;10.70;99.90;;;;;;5009549;28;20444;-76
2022/11/07 06:54:07;;;;;;;6.63;1.90;;;10.70;99.90;;;;;;4997682;28;20030;-76
2022/11/07 06:56:33;;;;;;;6.43;2.53;;;10.70;99.90;;;;;;5008099;28;20408;-75
2022/11/07 06:58:59;;;;;;;10.13;2.10;;;10.70;99.90;;;;;;4997973;28;20064;-74
2022/11/07 07:01:25;;;;;;;5.53;1.93;;;10.70;99.90;;;;;;5004364;28;20494;-74
2022/11/07 07:03:53;;;;;;;8.30;2.45;;;10.80;99.90;;;;;;5006945;28;20287;-74
2022/11/07 07:06:18;;;;;;;6.53;2.97;;;10.80;99.90;;;;;;5007891;28;20042;-74
2022/11/07 07:08:44;;;;;;;7.53;2.40;;;10.80;99.90;;;;;;5006175;28;20045;-74
2022/11/07 07:11:15;;;;;;;6.05;2.45;;;10.80;99.90;;;;;;5005245;28;20119;-74
2022/11/07 07:13:41;;;;;;;9.02;2.80;;;10.80;99.90;;;;;;4988392;28;20050;-74
2022/11/07 07:16:08;;;;;;;9.27;3.63;;;10.90;99.90;;;;;;4989909;28;20034;-74
2022/11/07 07:18:34;;;;;;;5.60;2.53;;;10.90;99.90;;;;;;5005190;28;20054;-74
2022/11/07 07:21:03;;;;;;;;;;;10.90;99.90;;;;;;5024464;28;20048;-74
2022/11/07 07:23:29;;;;;;;9.63;2.58;;;10.90;99.90;;;;;;5012623;28;19921;-74
2022/11/07 07:25:54;;;;;;;12.63;3.03;;;10.90;99.90;;;;;;5005618;28;20131;-74
2022/11/07 07:28:20;;;;;;;7.37;2.77;;;10.90;99.90;;;;;;5001768;28;20531;-75
2022/11/07 07:30:46;;;;;;;4.73;2.80;;;10.90;99.90;;;;;;5004729;28;20034;-73
2022/11/07 07:33:12;;;;;;;16.17;3.10;;;10.90;99.90;;;;;;5010974;28;20380;-74
2022/11/07 07:35:37;;;;;;;8.55;3.05;;;10.90;99.90;;;;;;5010470;28;20450;-74
2022/11/07 07:38:05;;;;;;;9.23;2.93;;;10.90;99.90;;;;;;5009064;28;20073;-74
2022/11/07 07:40:31;;;;;;;9.55;3.35;;;10.80;99.90;;;;;;5000690;28;20500;-74
2022/11/07 07:42:57;;;;;;;10.77;3.70;;;10.80;99.90;;;;;;5005474;28;20042;-74
2022/11/07 07:45:22;;;;;;;6.07;2.70;;;10.80;99.90;;;;;;5015839;28;20045;-74
2022/11/07 07:47:48;;;;;;;8.13;3.53;;;10.80;99.90;;;;;;4990640;28;20419;-74
2022/11/07 07:50:14;;;;;;;7.88;2.72;;;10.80;99.90;;;;;;5004400;28;20073;-73
2022/11/07 07:52:40;;;;;;;10.43;3.13;;;10.80;99.90;;;;;;5000957;28;20042;-74
2022/11/07 07:55:10;;;;;;;9.65;3.25;;;10.80;99.90;;;;;;5000127;28;20040;-74
2022/11/07 07:57:43;;;;;;;9.45;3.33;;;10.80;99.90;;;;;;4998290;28;20096;-74
2022/11/07 08:00:10;;;;;;;12.10;2.65;;;10.80;99.90;;;;;;5000170;28;20037;-74
2022/11/07 08:02:36;;;;;;;8.00;2.75;;;10.90;99.90;;;;;;5003043;28;20042;-73
2022/11/07 08:05:01;;;;;;;8.77;2.83;;;10.90;99.90;;;;;;5006427;28;20037;-74
2022/11/07 08:07:27;;;;;;;9.23;3.05;;;10.90;99.90;;;;;;5007456;28;20254;-73
2022/11/07 08:09:53;;;;;;;10.30;3.03;;;10.90;99.90;;;;;;5017816;28;20438;-74
2022/11/07 08:12:18;;;;;;;14.10;4.13;;;10.90;99.90;;;;;;5014207;28;20885;-74
2022/11/07 08:14:44;;;;;;;9.87;3.07;;;10.90;99.90;;;;;;5008165;28;20125;-74
2022/11/07 08:17:10;;;;;;;9.40;3.07;;;10.90;99.90;;;;;;5007140;28;20045;-74
2022/11/07 08:19:35;;;;;;;14.87;3.17;;;10.90;99.90;;;;;;5011570;28;20178;-74
2022/11/07 08:22:01;;;;;;;6.57;2.73;;;11.00;99.90;;;;;;5005454;28;20042;-74
2022/11/07 08:24:27;;;;;;;11.03;4.10;;;11.00;99.90;;;;;;4998253;28;20303;-74
2022/11/07 08:26:53;;;;;;;13.90;3.05;;;11.00;99.90;;;;;;5005974;28;20578;-74
2022/11/07 08:29:18;;;;;;;9.87;3.27;;;11.00;99.90;;;;;;5010988;28;20045;-74
2022/11/07 08:31:44;;;;;;;7.63;3.10;;;11.00;99.90;;;;;;5010334;28;20050;-74
2022/11/07 08:34:10;;;;;;;8.70;3.30;;;10.90;99.90;;;;;;5009153;28;20041;-74
2022/11/07 08:36:35;;;;;;;7.40;3.07;;;11.10;99.90;;;;;;5016332;28;20637;-74
2022/11/07 08:39:04;;;;;;;12.43;2.72;;;11.10;99.90;;;;;;5006220;28;20041;-74
2022/11/07 08:41:33;;;;;;;8.68;2.97;;;11.00;99.90;;;;;;5013681;28;20053;-74
2022/11/07 08:43:59;;;;;;;11.73;2.88;;;11.10;99.90;;;;;;5016618;28;20045;-74
2022/11/07 08:46:24;;;;;;;6.57;3.47;;;11.10;99.90;;;;;;5007796;28;20033;-74
2022/11/07 08:48:50;;;;;;;11.87;2.90;;;11.10;99.90;;;;;;5004491;28;20160;-74
2022/11/07 08:51:16;;;;;;;10.40;2.80;;;11.10;99.90;;;;;;5003381;28;20490;-74
2022/11/07 08:53:42;;;;;;;9.60;2.95;;;11.20;99.90;;;;;;5001991;28;20034;-74
2022/11/07 08:56:09;;;;;;;8.93;3.33;;;11.20;99.90;;;;;;5004635;28;20048;-75
2022/11/07 08:58:36;;;;;;;8.07;2.60;;;11.20;99.90;;;;;;4998909;28;20049;-75
2022/11/07 09:01:06;;;;;;;8.40;2.58;;;11.20;99.90;;;;;;5003895;28;20082;-74
2022/11/07 09:03:35;;;;;;;9.27;3.65;;;11.20;99.90;;;;;;5011191;28;20046;-74
2022/11/07 09:06:04;;;;;;;11.07;2.78;;;11.30;99.90;;;;;;5004799;28;20076;-73
2022/11/07 09:08:33;;;;;;;5.53;2.53;;;11.30;99.90;;;;;;5004456;28;20077;-74
2022/11/07 09:11:03;;;;;;;12.82;3.17;;;11.30;99.90;;;;;;5003420;28;20647;-74
2022/11/07 09:13:52;;;;;;;;;;;;;;;;;;;;;
2022/11/07 09:16:53;;;;;;;11.25;3.22;;;11.40;99.90;;;;;;5040896;28;20045;-85
2022/11/07 09:22:33;;;;;;;11.30;2.45;;;11.40;99.90;;;;;;5029276;28;20037;-85
2022/11/07 09:25:22;;;;;;;15.02;2.50;;;11.40;99.90;;;;;;5015445;28;20038;-84
2022/11/07 09:27:54;;;;;;;9.10;2.72;;;11.40;99.90;;;;;;5023169;28;20044;-85
2022/11/07 09:30:49;;;;;;;16.35;2.53;;;11.50;99.90;;;;;;5014736;28;20552;-85
2022/11/07 09:34:06;;;;;;;11.75;2.97;;;11.50;99.90;;;;;;5025966;28;20148;-86
2022/11/07 09:37:24;;;;;;;6.68;2.70;;;11.50;99.90;;;;;;5010516;28;20137;-85
2022/11/07 09:40:12;;;;;;;11.00;3.33;;;11.60;99.90;;;;;;5006123;28;20509;-84
2022/11/07 09:43:04;;;;;;;11.30;3.20;;;11.50;99.90;;;;;;5009634;28;20046;-85
2022/11/07 09:45:33;;;;;;;10.07;2.55;;;11.60;99.90;;;;;;5015133;22;20049;-73
2022/11/07 09:48:05;;;;;;;11.55;3.10;;;11.60;99.90;;;;;;5021960;28;20045;-80
2022/11/07 09:50:36;;;;;;;6.93;2.63;;;11.60;99.90;;;;;;5023280;28;20099;-73
2022/11/07 09:53:17;;;;;;;6.82;2.53;;;11.60;99.90;;;;;;5007293;28;20140;-73
2022/11/07 09:56:03;;;;;;;6.47;2.80;;;11.70;99.90;;;;;;5024544;28;20103;-72
2022/11/07 09:58:36;;;;;;;5.55;2.80;;;11.70;99.90;;;;;;5017826;28;20037;-72
2022/11/07 10:01:05;;;;;;;8.63;3.13;;;11.70;99.90;;;;;;5027558;28;20049;-77
2022/11/07 10:03:35;;;;;;;10.88;2.92;;;11.70;99.90;;;;;;5035199;28;20091;-73
2022/11/07 10:06:21;;;;;;;11.35;3.05;;;11.80;99.90;;;;;;5035018;28;20491;-80
2022/11/07 10:09:04;;;;;;;11.57;3.45;;;11.80;99.90;;;;;;5031472;28;20116;-76
2022/11/07 10:11:53;;;;;;;7.82;2.92;;;11.80;99.90;;;;;;5026058;28;20103;-73
2022/11/07 10:15:07;;;;;;;8.02;2.83;;;11.90;99.90;;;;;;5023852;28;20072;-73
2022/11/07 10:18:14;;;;;;;9.57;3.08;;;11.90;99.90;;;;;;5005459;28;20053;-73
2022/11/07 10:20:40;;;;;;;11.02;2.75;;;11.90;99.90;;;;;;5024642;28;20446;-73
2022/11/07 10:23:39;;;;;;;8.30;2.47;;;12.00;99.90;;;;;;5027225;28;20033;-72
2022/11/07 10:26:10;;;;;;;9.63;2.42;;;12.00;99.90;;;;;;5012370;28;20038;-73
2022/11/07 10:28:55;;;;;;;9.23;2.58;;;12.00;99.90;;;;;;5024319;28;20175;-73
2022/11/07 10:31:21;;;;;;;6.97;2.90;;;12.10;99.90;;;;;;5025121;28;20133;-72
2022/11/07 10:33:50;;;;;;;;;;;12.10;99.90;;;;;;5026053;28;20253;-72
2022/11/07 10:36:27;;;;;;;10.52;2.95;;;12.10;99.90;;;;;;5023832;28;19975;-72
2022/11/07 10:38:53;;;;;;;4.10;1.73;;;12.10;99.90;;;;;;5031430;28;20494;-73
2022/11/07 10:41:21;;;;;;;15.10;2.10;;;12.20;99.90;;;;;;5027485;28;20093;-73
2022/11/07 10:43:56;;;;;;;8.98;2.58;;;12.20;99.90;;;;;;5017245;28;20997;-75
2022/11/07 10:46:32;;;;;;;6.78;1.67;;;12.20;99.90;;;;;;5025612;28;20545;-74
2022/11/07 10:49:00;;;;;;;8.13;2.65;;;12.30;99.90;;;;;;5022207;28;20037;-75
2022/11/07 10:51:36;;;;;;;9.52;1.83;;;12.30;99.90;;;;;;5020957;28;20042;-73
2022/11/07 10:54:03;;;;;;;6.07;2.22;;;12.30;99.90;;;;;;5038469;28;20037;-74
2022/11/07 10:56:29;;;;;;;10.85;2.50;;;12.30;99.90;;;;;;5030978;28;20057;-73
2022/11/07 10:58:56;;;;;;;8.40;2.90;;;12.40;99.90;;;;;;5029761;28;20051;-73
2022/11/07 11:01:24;;;;;;;7.40;2.30;;;12.40;99.90;;;;;;5029703;28;20067;-73
2022/11/07 11:03:50;;;;;;;11.32;2.47;;;12.40;99.90;;;;;;5030769;28;20041;-74
2022/11/07 11:06:29;;;;;;;9.93;2.17;;;12.40;99.90;;;;;;5031625;28;20744;-74
2022/11/07 11:08:55;;;;;;;12.65;2.60;;;12.50;99.90;;;;;;5028108;28;20048;-76
2022/11/07 11:11:32;;;;;;;9.43;2.72;;;12.50;99.90;;;;;;5027869;28;20099;-77
2022/11/07 11:14:15;;;;;;;12.00;2.28;;;12.50;99.90;;;;;;5023216;28;20451;-73
2022/11/07 11:16:42;;;;;;;9.65;2.47;;;12.50;99.90;;;;;;5024192;28;20104;-72
2022/11/07 11:19:22;;;;;;;8.02;2.30;;;12.50;99.90;;;;;;5025566;28;20047;-73
2022/11/07 11:21:49;;;;;;;9.77;2.72;;;12.50;99.90;;;;;;5027977;28;20067;-73
2022/11/07 11:24:38;;;;;;;8.65;2.90;;;12.50;99.90;;;;;;5030076;28;20124;-71
2022/11/07 11:27:18;;;;;;;8.60;2.47;;;12.60;99.90;;;;;;5023270;28;20057;-72
2022/11/07 11:29:53;;;;;;;10.93;2.33;;;12.50;99.90;;;;;;5030802;28;20067;-73
2022/11/07 11:32:36;;;;;;;5.70;2.40;;;12.50;99.90;;;;;;5020388;28;20048;-72
2022/11/07 11:35:21;;;;;;;11.07;3.22;;;12.60;99.90;;;;;;5023598;28;20080;-72
2022/11/07 11:37:56;;;;;;;7.65;2.95;;;12.70;99.90;;;;;;5024785;28;20038;-74
2022/11/07 11:40:22;;;;;;;9.88;2.83;;;12.70;99.90;;;;;;5023955;28;20056;-72
2022/11/07 11:42:56;;;;;;;7.30;2.42;;;12.70;99.90;;;;;;5028043;28;20510;-72
2022/11/07 11:45:39;;;;;;;7.85;3.47;;;12.80;99.90;;;;;;5019285;28;20094;-73
2022/11/07 11:48:05;;;;;;;6.32;3.00;;;12.90;99.90;;;;;;5034951;28;20057;-72
2022/11/07 11:50:48;;;;;;;7.87;3.30;;;12.90;99.90;;;;;;5022583;28;20054;-72
2022/11/07 11:53:17;;;;;;;9.63;2.95;;;12.90;99.90;;;;;;5018546;28;20103;-72
2022/11/07 11:56:09;;;;;;;10.50;3.30;;;12.90;99.90;;;;;;5024696;28;20441;-72
2022/11/07 11:58:40;;;;;;;8.00;2.60;;;12.90;99.90;;;;;;5025804;28;20056;-72
2022/11/07 12:01:19;;;;;;;9.85;5.20;;;12.90;99.90;;;;;;5020077;28;20539;-72
2022/11/07 12:03:57;;;;;;;7.63;2.70;;;12.90;99.90;;;;;;5024648;28;20067;-72
2022/11/07 12:06:35;;;;;;;6.65;2.78;;;13.00;99.90;;;;;;5017883;28;20049;-72
2022/11/07 12:09:31;;;;;;;8.68;2.40;;;13.00;99.90;;;;;;5014767;28;20046;-72
2022/11/07 12:12:02;;;;;;;5.90;2.63;;;13.10;99.90;;;;;;5016862;28;20044;-72
2022/11/07 12:14:59;;;;;;;8.85;2.72;;;13.10;99.90;;;;;;5021319;28;20188;-72
2022/11/07 12:17:38;;;;;;;8.38;2.65;;;13.20;99.90;;;;;;5024096;28;20046;-72
2022/11/07 12:20:24;;;;;;;6.80;2.28;;;13.20;99.90;;;;;;5021087;28;20045;-72
2022/11/07 12:22:55;;;;;;;7.68;2.70;;;13.20;99.90;;;;;;5020861;28;20069;-72
2022/11/07 12:25:25;;;;;;;6.45;2.15;;;13.20;99.90;;;;;;5015787;28;20221;-72
2022/11/07 12:28:09;;;;;;;7.38;2.88;;;13.20;99.90;;;;;;5021225;28;20392;-72
2022/11/07 12:30:41;;;;;;;8.18;2.40;;;13.30;99.90;;;;;;5027675;28;20109;-72
2022/11/07 12:33:34;;;;;;;6.78;2.47;;;13.40;99.90;;;;;;5027722;28;20123;-72
2022/11/07 12:36:15;;;;;;;4.35;2.28;;;13.50;99.90;;;;;;5019835;28;20030;-72
2022/11/07 12:39:04;;;;;;;6.60;2.47;;;13.60;99.90;;;;;;5022866;28;20037;-72
2022/11/07 12:41:48;;;;;;;4.40;2.28;;;13.60;99.90;;;;;;5024557;28;20248;-72
2022/11/07 12:44:38;;;;;;;7.75;2.50;;;13.60;99.90;;;;;;5021018;28;20070;-72
2022/11/07 12:47:15;;;;;;;6.68;2.67;;;13.60;99.90;;;;;;5018643;28;20049;-72
2022/11/07 12:50:01;;;;;;;10.65;2.35;;;13.50;99.90;;;;;;5017668;28;20427;-72
2022/11/07 12:52:36;;;;;;;10.57;2.63;;;13.40;99.90;;;;;;5019957;28;20048;-72
2022/11/07 12:55:28;;;;;;;8.45;2.70;;;13.40;99.90;;;;;;5025362;28;20398;-72
2022/11/07 12:57:54;;;;;;;8.88;2.72;;;13.40;99.90;;;;;;5020564;28;20405;-72
2022/11/07 13:00:25;;;;;;;9.27;2.80;;;13.40;99.90;;;;;;5022203;28;20038;-72
2022/11/07 13:03:09;;;;;;;11.38;2.88;;;13.50;99.90;;;;;;5018696;28;20060;-72
2022/11/07 13:06:00;;;;;;;8.50;2.85;;;13.40;99.90;;;;;;5015061;28;20110;-72
2022/11/07 13:08:38;;;;;;;8.73;2.33;;;13.40;99.90;;;;;;5023913;28;20502;-72
2022/11/07 13:11:41;;;;;;;10.10;2.95;;;13.30;99.90;;;;;;5019391;28;20450;-72
2022/11/07 13:14:27;;;;;;;6.68;2.22;;;13.30;99.90;;;;;;5016548;28;20041;-72
2022/11/07 13:17:20;;;;;;;9.00;2.60;;;13.30;99.90;;;;;;5019402;28;20047;-71
2022/11/07 13:20:01;;;;;;;7.85;2.75;;;13.30;99.90;;;;;;5019621;28;20037;-72
2022/11/07 13:22:38;;;;;;;10.05;2.72;;;13.30;99.90;;;;;;5021218;28;20138;-72
2022/11/07 13:25:20;;;;;;;8.45;3.03;;;13.30;99.90;;;;;;5026174;28;20069;-72